Time;durP1;ratioP1;P1;durP2;ratioP2;P2;SDS_P1;SDS_P2;PMS_P1;PMS_P2;Temp;Humidity;BMP_temperature;BMP_pressure;BME280_temperature;BME280_humidity;BME280_pressure;Samples;Min_cycle;Max_cycle;Signal;HPM_P1;HPM_P2
2023/06/27 00:01:18;;;;;;;6.20;3.35;;;;;;;;;;5063018;28;20028;-78
2023/06/27 00:03:44;;;;;;;8.55;4.10;;;;;;;;;;5068080;28;20044;-77
2023/06/27 00:06:10;;;;;;;8.02;3.17;;;;;;;;;;5053783;28;20037;-78
2023/06/27 00:08:37;;;;;;;9.93;3.35;;;;;;;;;;5035971;28;20067;-76
2023/06/27 00:11:03;;;;;;;8.35;3.78;;;;;;;;;;5029962;28;20036;-78
2023/06/27 00:13:30;;;;;;;9.60;3.90;;;;;;;;;;5048435;28;20025;-76
2023/06/27 00:16:00;;;;;;;8.25;4.20;;;;;;;;;;5046972;28;20040;-79
2023/06/27 00:18:34;;;;;;;12.55;3.80;;;;;;;;;;5048139;28;20033;-77
2023/06/27 00:21:00;;;;;;;12.68;4.43;;;;;;;;;;5030213;28;20041;-78
2023/06/27 00:23:33;;;;;;;11.48;4.22;;;;;;;;;;5048237;28;20045;-78
2023/06/27 00:25:59;;;;;;;10.07;3.63;;;;;;;;;;5041219;28;20061;-79
2023/06/27 00:28:25;;;;;;;9.27;4.10;;;;;;;;;;5040530;28;20099;-78
2023/06/27 00:30:51;;;;;;;8.18;4.13;;;;;;;;;;5045123;28;20479;-78
2023/06/27 00:33:17;;;;;;;7.72;4.10;;;;;;;;;;5042774;28;20063;-78
2023/06/27 00:35:43;;;;;;;9.02;4.20;;;;;;;;;;5051906;28;20032;-79
2023/06/27 00:38:09;;;;;;;8.20;4.28;;;;;;;;;;5051741;28;20053;-78
2023/06/27 00:40:35;;;;;;;9.85;4.18;;;;;;;;;;5051848;28;20029;-78
2023/06/27 00:43:01;;;;;;;11.88;4.38;;;;;;;;;;5051401;28;20041;-78
2023/06/27 00:45:27;;;;;;;13.27;4.95;;;;;;;;;;5020459;28;20029;-78
2023/06/27 00:47:53;;;;;;;12.02;5.18;;;;;;;;;;5050494;28;20083;-78
2023/06/27 00:50:20;;;;;;;11.50;5.13;;;;;;;;;;5051212;28;20490;-78
2023/06/27 00:52:46;;;;;;;9.60;4.72;;;;;;;;;;5039676;28;20057;-78
2023/06/27 00:55:12;;;;;;;12.35;4.57;;;;;;;;;;5049180;28;20059;-77
2023/06/27 00:57:40;;;;;;;8.40;4.45;;;;;;;;;;5051152;28;20025;-76
2023/06/27 01:00:09;;;;;;;9.43;4.72;;;;;;;;;;5050383;28;20025;-79
2023/06/27 01:02:36;;;;;;;13.60;5.90;;;;;;;;;;5051364;28;20123;-79
2023/06/27 01:05:03;;;;;;;14.93;5.72;;;;;;;;;;5050957;28;20029;-77
2023/06/27 01:07:38;;;;;;;11.85;5.55;;;;;;;;;;5055798;28;20545;-78
2023/06/27 01:10:26;;;;;;;9.18;5.20;;;;;;;;;;5038603;28;20402;-78
2023/06/27 01:12:59;;;;;;;11.93;5.68;;;;;;;;;;5050505;28;20036;-78
2023/06/27 01:15:26;;;;;;;9.00;5.30;;;;;;;;;;5050424;28;20062;-79
2023/06/27 01:17:52;;;;;;;13.27;4.85;;;;;;;;;;5050640;28;20032;-78
2023/06/27 01:20:19;;;;;;;11.27;5.15;;;;;;;;;;5062503;28;20025;-78
2023/06/27 01:22:47;;;;;;;13.82;5.85;;;;;;;;;;5052453;28;20033;-78
2023/06/27 01:25:14;;;;;;;11.60;5.18;;;;;;;;;;5050149;28;20028;-78
2023/06/27 01:27:40;;;;;;;8.93;4.57;;;;;;;;;;5050245;28;20040;-78
2023/06/27 01:30:08;;;;;;;12.13;5.18;;;;;;;;;;5048129;28;20021;-78
2023/06/27 01:32:50;;;;;;;10.35;5.32;;;;;;;;;;5053246;28;20067;-77
2023/06/27 01:35:22;;;;;;;10.48;5.07;;;;;;;;;;5050652;28;20025;-78
2023/06/27 01:37:56;;;;;;;13.32;5.63;;;;;;;;;;5032584;28;20029;-77
2023/06/27 01:40:24;;;;;;;11.90;5.72;;;;;;;;;;5050933;28;20033;-78
2023/06/27 01:42:51;;;;;;;9.57;5.13;;;;;;;;;;5035410;28;20044;-78
2023/06/27 01:45:18;;;;;;;10.82;5.35;;;;;;;;;;5050165;28;20108;-78
2023/06/27 01:47:45;;;;;;;13.23;6.25;;;;;;;;;;5066700;28;20036;-78
2023/06/27 01:50:11;;;;;;;11.35;5.68;;;;;;;;;;5060218;28;20033;-78
2023/06/27 01:52:37;;;;;;;12.15;5.55;;;;;;;;;;5048252;28;20395;-78
2023/06/27 01:55:03;;;;;;;11.25;6.47;;;;;;;;;;5053418;28;20360;-78
2023/06/27 01:57:30;;;;;;;13.88;6.95;;;;;;;;;;5070559;28;20020;-78
2023/06/27 01:59:56;;;;;;;10.10;5.68;;;;;;;;;;5050281;28;20040;-78
2023/06/27 02:02:22;;;;;;;13.02;6.22;;;;;;;;;;5061295;28;20032;-78
2023/06/27 02:04:48;;;;;;;11.85;5.80;;;;;;;;;;5071688;28;20028;-78
2023/06/27 02:07:14;;;;;;;15.32;6.57;;;;;;;;;;5070345;28;20024;-78
2023/06/27 02:09:40;;;;;;;12.30;6.85;;;;;;;;;;5070703;28;20108;-78
2023/06/27 02:12:09;;;;;;;11.93;6.28;;;;;;;;;;5067838;28;20039;-78
2023/06/27 02:14:35;;;;;;;10.63;6.28;;;;;;;;;;5050336;28;20111;-78
2023/06/27 02:17:01;;;;;;;14.35;6.90;;;;;;;;;;5048832;28;20492;-79
2023/06/27 02:19:27;;;;;;;9.70;5.63;;;;;;;;;;5049646;28;20025;-79
2023/06/27 02:21:53;;;;;;;10.48;6.03;;;;;;;;;;5049708;28;20025;-78
2023/06/27 02:24:19;;;;;;;14.20;6.75;;;;;;;;;;5049612;28;20024;-78
2023/06/27 02:26:46;;;;;;;9.40;6.07;;;;;;;;;;5050489;28;20028;-79
2023/06/27 02:29:12;;;;;;;14.13;7.45;;;;;;;;;;5050779;28;20033;-78
2023/06/27 02:31:38;;;;;;;14.98;6.57;;;;;;;;;;5042942;28;20029;-77
2023/06/27 02:34:04;;;;;;;16.58;7.50;;;;;;;;;;5044065;28;20131;-78
2023/06/27 02:36:30;;;;;;;10.65;6.70;;;;;;;;;;5049576;28;20048;-79
2023/06/27 02:38:57;;;;;;;10.93;6.32;;;;;;;;;;5034679;28;20029;-78
2023/06/27 02:41:23;;;;;;;13.55;6.68;;;;;;;;;;5020492;28;20021;-78
2023/06/27 02:43:50;;;;;;;11.63;6.72;;;;;;;;;;5036528;28;20049;-78
2023/06/27 02:46:17;;;;;;;13.40;7.10;;;;;;;;;;5042533;28;20026;-79
2023/06/27 02:48:43;;;;;;;14.50;6.35;;;;;;;;;;5016223;28;20030;-77
2023/06/27 02:51:11;;;;;;;13.43;6.68;;;;;;;;;;5038784;28;20029;-78
2023/06/27 02:53:37;;;;;;;13.70;7.70;;;;;;;;;;5049832;28;20027;-78
2023/06/27 02:56:04;;;;;;;9.88;6.60;;;;;;;;;;5049341;28;20025;-78
2023/06/27 02:58:30;;;;;;;14.02;7.07;;;;;;;;;;5036385;28;20444;-78
2023/06/27 03:00:59;;;;;;;14.88;7.75;;;;;;;;;;5050092;28;20028;-78
2023/06/27 03:03:25;;;;;;;10.85;7.15;;;;;;;;;;5033867;28;20140;-78
2023/06/27 03:05:51;;;;;;;14.45;7.88;;;;;;;;;;5029520;28;20113;-78
2023/06/27 03:08:17;;;;;;;14.80;7.25;;;;;;;;;;5032148;28;20052;-78
2023/06/27 03:10:43;;;;;;;13.93;8.05;;;;;;;;;;5021365;28;20459;-76
2023/06/27 03:13:10;;;;;;;14.95;7.88;;;;;;;;;;5017667;28;20022;-78
2023/06/27 03:15:36;;;;;;;11.68;6.97;;;;;;;;;;5035624;28;20036;-78
2023/06/27 03:18:02;;;;;;;12.27;7.35;;;;;;;;;;5049198;28;20394;-79
2023/06/27 03:20:28;;;;;;;14.43;7.18;;;;;;;;;;5048683;28;20029;-78
2023/06/27 03:22:54;;;;;;;15.45;7.57;;;;;;;;;;5035510;28;20506;-78
2023/06/27 03:25:20;;;;;;;18.35;8.02;;;;;;;;;;5029048;28;20053;-78
2023/06/27 03:27:46;;;;;;;14.50;7.47;;;;;;;;;;5026152;28;20023;-78
2023/06/27 03:30:13;;;;;;;13.80;8.48;;;;;;;;;;5028380;28;20079;-78
2023/06/27 03:32:39;;;;;;;13.02;7.22;;;;;;;;;;5013563;28;20041;-78
2023/06/27 03:35:06;;;;;;;12.70;8.20;;;;;;;;;;5030726;28;20035;-77
2023/06/27 03:37:33;;;;;;;14.73;8.32;;;;;;;;;;5048210;28;20526;-78
2023/06/27 03:40:00;;;;;;;14.65;7.63;;;;;;;;;;5037567;28;20031;-78
2023/06/27 03:42:26;;;;;;;16.33;7.55;;;;;;;;;;5061351;28;20089;-78
2023/06/27 03:44:52;;;;;;;14.40;7.30;;;;;;;;;;5047843;28;20104;-78
2023/06/27 03:47:18;;;;;;;14.20;7.13;;;;;;;;;;5048289;28;20500;-78
2023/06/27 03:49:44;;;;;;;15.93;8.15;;;;;;;;;;5048120;28;20033;-77
2023/06/27 03:52:10;;;;;;;12.85;7.07;;;;;;;;;;5047754;28;20530;-78
2023/06/27 03:54:36;;;;;;;12.70;7.47;;;;;;;;;;5048527;28;20036;-78
2023/06/27 03:57:02;;;;;;;14.00;7.22;;;;;;;;;;5047891;28;20029;-78
2023/06/27 03:59:28;;;;;;;13.27;7.30;;;;;;;;;;5036331;28;20036;-77
2023/06/27 04:01:54;;;;;;;13.35;7.32;;;;;;;;;;5054562;28;20029;-77
2023/06/27 04:04:20;;;;;;;14.40;7.63;;;;;;;;;;5051194;28;20509;-78
2023/06/27 04:06:46;;;;;;;11.20;7.20;;;;;;;;;;5058348;28;20386;-79
2023/06/27 04:09:12;;;;;;;18.33;7.43;;;;;;;;;;5051544;28;20840;-79
2023/06/27 04:11:38;;;;;;;17.73;7.32;;;;;;;;;;5051433;28;20079;-78
2023/06/27 04:14:04;;;;;;;18.20;6.93;;;;;;;;;;5051474;28;20025;-79
2023/06/27 04:16:30;;;;;;;13.32;6.65;;;;;;;;;;5052305;28;20104;-78
2023/06/27 04:18:56;;;;;;;13.98;6.68;;;;;;;;;;5051218;28;20782;-78
2023/06/27 04:21:22;;;;;;;18.52;7.53;;;;;;;;;;5033897;28;20032;-77
2023/06/27 04:23:54;;;;;;;15.35;6.68;;;;;;;;;;5050779;28;20123;-77
2023/06/27 04:26:20;;;;;;;11.48;7.07;;;;;;;;;;5045187;28;20025;-77
2023/06/27 04:28:49;;;;;;;14.40;7.10;;;;;;;;;;5051696;28;20025;-77
2023/06/27 04:31:15;;;;;;;16.17;7.00;;;;;;;;;;5051179;28;20029;-79
2023/06/27 04:33:42;;;;;;;16.30;6.63;;;;;;;;;;5037346;28;20053;-78
2023/06/27 04:36:08;;;;;;;15.85;6.78;;;;;;;;;;5050854;28;20025;-79
2023/06/27 04:38:37;;;;;;;16.00;7.00;;;;;;;;;;5050926;28;20056;-77
2023/06/27 04:41:07;;;;;;;17.23;6.80;;;;;;;;;;5033727;28;20025;-77
2023/06/27 04:43:34;;;;;;;18.52;6.45;;;;;;;;;;5051123;28;20663;-79
2023/06/27 04:46:00;;;;;;;13.55;7.22;;;;;;;;;;5052028;28;20048;-77
2023/06/27 04:48:26;;;;;;;13.90;6.85;;;;;;;;;;5053935;28;20032;-79
2023/06/27 04:50:56;;;;;;;12.93;6.43;;;;;;;;;;5055121;28;20043;-77
2023/06/27 04:53:22;;;;;;;18.58;7.05;;;;;;;;;;5072261;28;20032;-77
2023/06/27 04:55:48;;;;;;;17.98;6.45;;;;;;;;;;5074202;28;20024;-79
2023/06/27 04:58:21;;;;;;;18.55;8.18;;;;;;;;;;5054668;28;20035;-79
2023/06/27 05:00:48;;;;;;;12.50;6.38;;;;;;;;;;5061191;28;20475;-77
2023/06/27 05:03:15;;;;;;;15.10;6.75;;;;;;;;;;5051297;28;20047;-78
2023/06/27 05:05:41;;;;;;;23.73;8.25;;;;;;;;;;5048578;28;20049;-78
2023/06/27 05:08:07;;;;;;;18.92;8.02;;;;;;;;;;5034555;28;20029;-79
2023/06/27 05:10:33;;;;;;;16.85;7.32;;;;;;;;;;5071358;28;20463;-77
2023/06/27 05:13:02;;;;;;;18.25;7.35;;;;;;;;;;5048312;28;20032;-79
2023/06/27 05:15:28;;;;;;;21.33;8.15;;;;;;;;;;5062466;28;20106;-78
2023/06/27 05:17:55;;;;;;;16.83;8.15;;;;;;;;;;5070775;28;20466;-78
2023/06/27 05:20:22;;;;;;;15.90;7.90;;;;;;;;;;5064985;28;20130;-78
2023/06/27 05:22:48;;;;;;;19.38;8.80;;;;;;;;;;5071080;28;20039;-78
2023/06/27 05:25:14;;;;;;;16.10;8.23;;;;;;;;;;5071115;28;20029;-78
2023/06/27 05:27:40;;;;;;;20.27;7.88;;;;;;;;;;5071220;28;20021;-79
2023/06/27 05:30:06;;;;;;;16.40;7.88;;;;;;;;;;5055913;28;20041;-79
2023/06/27 05:32:32;;;;;;;16.77;7.97;;;;;;;;;;5043687;28;20025;-79
2023/06/27 05:34:58;;;;;;;20.20;8.30;;;;;;;;;;5050535;28;20032;-78
2023/06/27 05:37:25;;;;;;;14.55;6.70;;;;;;;;;;5050726;28;20056;-78
2023/06/27 05:39:51;;;;;;;12.82;6.57;;;;;;;;;;5062256;28;20070;-79
2023/06/27 05:42:16;;;;;;;15.85;7.38;;;;;;;;;;5053166;28;20440;-79
2023/06/27 05:44:43;;;;;;;20.88;7.63;;;;;;;;;;5041213;28;20079;-78
2023/06/27 05:47:10;;;;;;;15.77;7.05;;;;;;;;;;5044162;28;20017;-77
2023/06/27 05:49:36;;;;;;;16.75;7.43;;;;;;;;;;5043468;28;20036;-78
2023/06/27 05:52:02;;;;;;;21.27;7.90;;;;;;;;;;5024975;28;20022;-79
2023/06/27 05:54:28;;;;;;;18.77;7.38;;;;;;;;;;5023989;28;20029;-79
2023/06/27 05:56:54;;;;;;;17.38;7.18;;;;;;;;;;5049617;28;20025;-74
2023/06/27 05:59:20;;;;;;;17.30;7.43;;;;;;;;;;5036678;28;20513;-79
2023/06/27 06:01:46;;;;;;;19.92;7.88;;;;;;;;;;5018763;28;20033;-79
2023/06/27 06:04:12;;;;;;;20.52;7.70;;;;;;;;;;5050105;28;20037;-79
2023/06/27 06:06:38;;;;;;;18.83;6.85;;;;;;;;;;5039270;28;20132;-80
2023/06/27 06:09:05;;;;;;;19.42;7.97;;;;;;;;;;5048152;28;20021;-80
2023/06/27 06:11:34;;;;;;;15.18;7.35;;;;;;;;;;5058873;28;20028;-80
2023/06/27 06:14:03;;;;;;;18.13;7.82;;;;;;;;;;5070066;28;20054;-81
2023/06/27 06:16:33;;;;;;;22.73;9.00;;;;;;;;;;5064997;28;20468;-80
2023/06/27 06:18:59;;;;;;;21.60;8.47;;;;;;;;;;5069294;28;20267;-77
2023/06/27 06:21:25;;;;;;;21.63;7.93;;;;;;;;;;5057147;28;20041;-79
2023/06/27 06:23:51;;;;;;;28.52;8.60;;;;;;;;;;5053597;28;20108;-78
2023/06/27 06:26:17;;;;;;;22.83;7.63;;;;;;;;;;5055748;28;20507;-80
2023/06/27 06:28:43;;;;;;;21.90;8.10;;;;;;;;;;5047739;28;20025;-80
2023/06/27 06:31:16;;;;;;;23.85;8.30;;;;;;;;;;5047881;28;20538;-80
2023/06/27 06:33:42;;;;;;;21.33;8.35;;;;;;;;;;5047670;28;20053;-78
2023/06/27 06:36:08;;;;;;;21.50;7.70;;;;;;;;;;5048611;28;20025;-80
2023/06/27 06:38:34;;;;;;;19.25;7.22;;;;;;;;;;5056103;28;20021;-81
2023/06/27 06:41:00;;;;;;;19.70;7.80;;;;;;;;;;5050952;28;20031;-80
2023/06/27 06:43:26;;;;;;;14.70;6.90;;;;;;;;;;5064455;28;20151;-80
2023/06/27 06:45:53;;;;;;;16.52;7.18;;;;;;;;;;5052094;28;20546;-80
2023/06/27 06:48:19;;;;;;;18.92;7.03;;;;;;;;;;5054528;28;20025;-80
2023/06/27 06:50:45;;;;;;;14.48;5.20;;;;;;;;;;5056132;28;20029;-81
2023/06/27 06:53:11;;;;;;;11.45;4.05;;;;;;;;;;5054283;28;20025;-77
2023/06/27 06:55:37;;;;;;;11.73;3.55;;;;;;;;;;5065889;28;20021;-79
2023/06/27 06:58:04;;;;;;;14.48;4.18;;;;;;;;;;5059950;28;20043;-78
2023/06/27 07:00:30;;;;;;;8.23;2.00;;;;;;;;;;5073192;28;20170;-81
2023/06/27 07:02:56;;;;;;;13.00;3.30;;;;;;;;;;5073214;28;20045;-80
2023/06/27 07:05:22;;;;;;;10.05;2.78;;;;;;;;;;5060900;28;20029;-79
2023/06/27 07:07:48;;;;;;;8.85;3.05;;;;;;;;;;5052222;28;20033;-79
2023/06/27 07:10:14;;;;;;;10.30;2.90;;;;;;;;;;5034823;28;20035;-78
2023/06/27 07:12:40;;;;;;;10.23;3.00;;;;;;;;;;5052775;28;20025;-78
2023/06/27 07:15:07;;;;;;;8.85;2.90;;;;;;;;;;5043325;28;20029;-79
2023/06/27 07:17:34;;;;;;;10.73;3.40;;;;;;;;;;5061104;28;20441;-79
2023/06/27 07:20:00;;;;;;;7.07;2.03;;;;;;;;;;5049781;28;20024;-80
2023/06/27 07:22:26;;;;;;;11.10;2.67;;;;;;;;;;5049880;28;20033;-78
2023/06/27 07:24:52;;;;;;;8.00;2.38;;;;;;;;;;5049314;28;20031;-78
2023/06/27 07:27:18;;;;;;;12.43;3.40;;;;;;;;;;5053766;28;20025;-79
2023/06/27 07:29:44;;;;;;;7.57;2.50;;;;;;;;;;5043531;28;20054;-80
2023/06/27 07:32:11;;;;;;;9.73;3.15;;;;;;;;;;5049915;28;20041;-76
2023/06/27 07:34:39;;;;;;;8.63;3.15;;;;;;;;;;5049154;28;20049;-79
2023/06/27 07:37:05;;;;;;;6.05;1.65;;;;;;;;;;5051813;28;20092;-80
2023/06/27 07:39:31;;;;;;;7.68;2.35;;;;;;;;;;5057238;28;20047;-79
2023/06/27 07:41:58;;;;;;;5.93;1.90;;;;;;;;;;5079410;28;20033;-81
2023/06/27 07:44:25;;;;;;;5.55;1.52;;;;;;;;;;5083725;28;20024;-80
2023/06/27 07:46:51;;;;;;;6.13;1.80;;;;;;;;;;5065401;28;20475;-80
2023/06/27 07:49:17;;;;;;;6.47;1.45;;;;;;;;;;5060223;28;20029;-79
2023/06/27 07:51:49;;;;;;;4.07;1.38;;;;;;;;;;5057589;28;20028;-78
2023/06/27 07:54:15;;;;;;;7.70;1.45;;;;;;;;;;5027060;28;20430;-78
2023/06/27 07:56:41;;;;;;;8.70;2.00;;;;;;;;;;5053738;28;20025;-78
2023/06/27 07:59:08;;;;;;;5.20;1.48;;;;;;;;;;5064610;28;20081;-79
2023/06/27 08:01:35;;;;;;;6.20;1.20;;;;;;;;;;5055952;28;20043;-80
2023/06/27 08:04:01;;;;;;;6.20;1.50;;;;;;;;;;5053371;28;20047;-80
2023/06/27 08:06:27;;;;;;;5.65;1.33;;;;;;;;;;5051996;28;20304;-79
2023/06/27 08:08:53;;;;;;;8.85;2.45;;;;;;;;;;5052765;28;20513;-80
2023/06/27 08:11:21;;;;;;;6.05;1.40;;;;;;;;;;5052935;28;20079;-80
2023/06/27 08:13:47;;;;;;;4.80;1.27;;;;;;;;;;5052973;28;20036;-81
2023/06/27 08:16:13;;;;;;;7.88;2.03;;;;;;;;;;5052549;28;20068;-78
2023/06/27 08:18:39;;;;;;;4.50;1.10;;;;;;;;;;5041370;28;20088;-80
2023/06/27 08:21:05;;;;;;;6.40;1.70;;;;;;;;;;5065367;28;20029;-79
2023/06/27 08:23:31;;;;;;;5.50;1.48;;;;;;;;;;5052450;28;20043;-77
2023/06/27 08:25:57;;;;;;;5.85;1.40;;;;;;;;;;5052191;28;20025;-78
2023/06/27 08:28:23;;;;;;;5.32;1.38;;;;;;;;;;5033987;28;20067;-77
2023/06/27 08:30:49;;;;;;;7.50;1.98;;;;;;;;;;5057893;28;20024;-79
2023/06/27 08:33:15;;;;;;;4.07;1.55;;;;;;;;;;5059353;28;20048;-79
2023/06/27 08:35:41;;;;;;;7.93;1.77;;;;;;;;;;5051298;28;20029;-79
2023/06/27 08:38:09;;;;;;;9.15;1.58;;;;;;;;;;5046976;28;20029;-80
2023/06/27 08:40:36;;;;;;;8.25;1.90;;;;;;;;;;5047563;28;20032;-81
2023/06/27 08:43:02;;;;;;;8.43;1.58;;;;;;;;;;5045486;28;20036;-81
2023/06/27 08:45:28;;;;;;;9.65;2.88;;;;;;;;;;5050570;28;20032;-80
2023/06/27 08:47:54;;;;;;;6.95;1.45;;;;;;;;;;5050442;28;20491;-79
2023/06/27 08:50:21;;;;;;;7.07;1.40;;;;;;;;;;5067821;28;20607;-78
2023/06/27 08:52:57;;;;;;;7.55;2.20;;;;;;;;;;5049264;28;20029;-80
2023/06/27 08:55:23;;;;;;;5.35;1.40;;;;;;;;;;5037836;28;20029;-79
2023/06/27 08:57:50;;;;;;;7.03;2.25;;;;;;;;;;5049718;28;20040;-81
2023/06/27 09:00:20;;;;;;;7.78;1.95;;;;;;;;;;5050377;28;20036;-79
2023/06/27 09:02:46;;;;;;;7.63;1.77;;;;;;;;;;5048444;28;20482;-80
2023/06/27 09:05:12;;;;;;;6.70;1.73;;;;;;;;;;5036591;28;20029;-77
2023/06/27 09:07:38;;;;;;;4.53;1.23;;;;;;;;;;5049168;28;20021;-81
2023/06/27 09:10:05;;;;;;;7.05;1.58;;;;;;;;;;5057438;28;20032;-79
2023/06/27 09:12:31;;;;;;;8.75;1.77;;;;;;;;;;5069479;28;20028;-81
2023/06/27 09:14:57;;;;;;;4.80;1.60;;;;;;;;;;5068909;28;20107;-79
2023/06/27 09:17:23;;;;;;;5.53;1.40;;;;;;;;;;5055257;28;20032;-79
2023/06/27 09:19:49;;;;;;;3.67;0.90;;;;;;;;;;5058429;28;20024;-79
2023/06/27 09:22:17;;;;;;;5.20;1.10;;;;;;;;;;5068990;28;20044;-80
2023/06/27 09:24:43;;;;;;;4.78;1.20;;;;;;;;;;5050895;28;20384;-81
2023/06/27 09:27:34;;;;;;;6.35;1.10;;;;;;;;;;5063765;28;20027;-80
2023/06/27 09:30:03;;;;;;;6.10;1.42;;;;;;;;;;5031181;28;20045;-80
2023/06/27 09:32:30;;;;;;;8.68;1.38;;;;;;;;;;5003369;28;1161919;-80
2023/06/27 09:34:56;;;;;;;9.35;1.80;;;;;;;;;;5043031;28;20121;-78
2023/06/27 09:37:28;;;;;;;4.70;1.02;;;;;;;;;;5020670;28;20065;-81
2023/06/27 09:39:55;;;;;;;6.97;1.30;;;;;;;;;;5036653;28;20030;-79
2023/06/27 09:42:21;;;;;;;4.35;1.20;;;;;;;;;;5051924;28;20029;-78
2023/06/27 09:44:47;;;;;;;7.10;1.60;;;;;;;;;;5051662;28;20029;-78
2023/06/27 09:47:13;;;;;;;6.82;1.48;;;;;;;;;;5051761;28;20037;-78
2023/06/27 09:49:43;;;;;;;7.45;2.42;;;;;;;;;;5051310;28;20029;-80
2023/06/27 09:52:11;;;;;;;;;;;;;;;;;;5020309;28;20033;-79
2023/06/27 09:54:46;;;;;;;7.00;1.20;;;;;;;;;;5050434;28;19908;-80
2023/06/27 09:57:13;;;;;;;5.43;1.20;;;;;;;;;;5033217;28;20025;-81
2023/06/27 09:59:39;;;;;;;6.88;1.33;;;;;;;;;;5052031;28;20036;-79
2023/06/27 10:02:11;;;;;;;3.05;1.05;;;;;;;;;;5063009;28;20410;-81
2023/06/27 10:04:37;;;;;;;5.47;1.42;;;;;;;;;;5051748;28;20024;-80
2023/06/27 10:07:03;;;;;;;5.55;1.30;;;;;;;;;;5050803;28;20025;-79
2023/06/27 10:09:30;;;;;;;3.05;0.98;;;;;;;;;;5051719;28;20025;-79
2023/06/27 10:11:56;;;;;;;8.82;1.42;;;;;;;;;;5048837;28;20112;-79
2023/06/27 10:14:22;;;;;;;5.43;1.17;;;;;;;;;;5051213;28;20551;-80
2023/06/27 10:16:48;;;;;;;6.13;1.13;;;;;;;;;;5032363;28;20017;-78
2023/06/27 10:19:15;;;;;;;4.93;1.38;;;;;;;;;;5050708;28;20068;-78
2023/06/27 10:21:41;;;;;;;3.40;1.00;;;;;;;;;;5049495;28;20017;-81
2023/06/27 10:24:08;;;;;;;3.83;1.17;;;;;;;;;;5036740;28;20063;-80
2023/06/27 10:26:34;;;;;;;6.85;1.50;;;;;;;;;;5040530;28;20037;-78
2023/06/27 10:29:03;;;;;;;4.93;1.13;;;;;;;;;;5046405;28;20071;-80
2023/06/27 10:31:45;;;;;;;4.03;1.10;;;;;;;;;;5040534;28;20029;-78
2023/06/27 10:34:37;;;;;;;3.88;1.20;;;;;;;;;;5042230;28;20327;-77
2023/06/27 10:37:05;;;;;;;6.03;0.95;;;;;;;;;;5051469;28;20036;-82
2023/06/27 10:39:36;;;;;;;4.50;1.00;;;;;;;;;;5061595;28;20075;-78
2023/06/27 10:42:06;;;;;;;7.00;1.30;;;;;;;;;;5059642;28;20017;-78
2023/06/27 10:44:35;;;;;;;5.20;0.93;;;;;;;;;;5037910;28;20024;-80
2023/06/27 10:47:16;;;;;;;5.30;1.20;;;;;;;;;;5057742;28;20040;-78
2023/06/27 10:49:53;;;;;;;5.80;1.33;;;;;;;;;;5059701;28;20024;-81
2023/06/27 10:52:23;;;;;;;3.88;1.42;;;;;;;;;;5040171;28;20109;-80
2023/06/27 10:55:08;;;;;;;3.25;0.93;;;;;;;;;;5030060;28;20071;-81
2023/06/27 10:57:38;;;;;;;5.35;1.20;;;;;;;;;;5051941;28;20108;-80
2023/06/27 11:00:11;;;;;;;3.63;0.95;;;;;;;;;;5049372;28;20017;-82
2023/06/27 11:02:41;;;;;;;4.53;0.88;;;;;;;;;;5036778;28;20079;-82
2023/06/27 11:05:12;;;;;;;4.65;1.30;;;;;;;;;;5047576;28;20068;-81
2023/06/27 11:07:38;;;;;;;5.43;1.10;;;;;;;;;;5032457;28;20021;-82
2023/06/27 11:10:21;;;;;;;3.30;1.05;;;;;;;;;;5049642;28;20582;-81
2023/06/27 11:12:49;;;;;;;4.78;1.35;;;;;;;;;;5049339;28;20025;-81
2023/06/27 11:15:15;;;;;;;3.95;0.98;;;;;;;;;;5048703;28;20379;-78
2023/06/27 11:17:41;;;;;;;6.05;1.05;;;;;;;;;;5050180;28;20047;-79
2023/06/27 11:20:09;;;;;;;6.50;1.33;;;;;;;;;;5049718;28;20104;-82
2023/06/27 11:22:35;;;;;;;6.05;1.10;;;;;;;;;;5045186;28;20141;-80
2023/06/27 11:25:10;;;;;;;7.07;1.27;;;;;;;;;;5024102;28;20072;-83
2023/06/27 11:27:37;;;;;;;8.50;1.60;;;;;;;;;;5037101;28;20032;-83
2023/06/27 11:30:03;;;;;;;3.95;1.17;;;;;;;;;;5056121;28;20074;-81
2023/06/27 11:32:29;;;;;;;3.30;0.75;;;;;;;;;;5026119;28;20090;-83
2023/06/27 11:34:55;;;;;;;5.93;0.88;;;;;;;;;;5041076;28;20026;-80
2023/06/27 11:37:21;;;;;;;3.72;1.17;;;;;;;;;;5031308;28;20033;-79
2023/06/27 11:39:54;;;;;;;6.93;1.05;;;;;;;;;;5052389;28;20032;-76
2023/06/27 11:42:33;;;;;;;4.18;0.98;;;;;;;;;;5050543;28;20111;-82
2023/06/27 11:44:59;;;;;;;4.53;0.90;;;;;;;;;;5059041;28;20368;-80
2023/06/27 11:47:25;;;;;;;4.65;1.05;;;;;;;;;;5049939;28;20108;-78
2023/06/27 11:49:51;;;;;;;8.18;1.63;;;;;;;;;;5049492;28;20029;-80
2023/06/27 11:52:17;;;;;;;4.90;0.93;;;;;;;;;;5052078;28;20494;-82
2023/06/27 11:54:49;;;;;;;4.82;1.15;;;;;;;;;;5049199;28;20032;-84
2023/06/27 11:57:17;;;;;;;8.05;1.63;;;;;;;;;;5031366;28;20124;-81
2023/06/27 11:59:43;;;;;;;3.00;0.90;;;;;;;;;;5050279;28;20032;-82
2023/06/27 12:02:10;;;;;;;6.13;0.80;;;;;;;;;;5037489;28;20383;-81
2023/06/27 12:04:36;;;;;;;3.47;1.33;;;;;;;;;;5051294;28;20285;-81
2023/06/27 12:07:19;;;;;;;3.45;0.70;;;;;;;;;;5039483;28;20395;-81
2023/06/27 12:09:45;;;;;;;6.97;1.30;;;;;;;;;;5031823;28;20071;-82
2023/06/27 12:12:11;;;;;;;3.88;1.10;;;;;;;;;;5048116;28;20029;-84
2023/06/27 12:14:37;;;;;;;6.15;1.10;;;;;;;;;;5058834;28;20035;-78
2023/06/27 12:17:11;;;;;;;5.78;1.38;;;;;;;;;;5061629;28;20411;-82
2023/06/27 12:19:37;;;;;;;4.05;1.35;;;;;;;;;;5045414;28;20024;-83
2023/06/27 12:22:03;;;;;;;6.00;1.23;;;;;;;;;;5034115;28;20021;-82
2023/06/27 12:24:29;;;;;;;5.43;1.52;;;;;;;;;;5049302;28;20037;-83
2023/06/27 12:26:55;;;;;;;5.32;1.38;;;;;;;;;;5034257;28;20159;-80
2023/06/27 12:29:21;;;;;;;8.73;1.67;;;;;;;;;;5052413;28;20498;-85
2023/06/27 12:31:47;;;;;;;6.65;1.40;;;;;;;;;;5042763;28;20025;-83
2023/06/27 12:34:13;;;;;;;4.28;1.15;;;;;;;;;;5056620;28;20053;-82
2023/06/27 12:36:39;;;;;;;3.20;1.08;;;;;;;;;;5053653;28;20036;-84
2023/06/27 12:39:10;;;;;;;5.68;0.95;;;;;;;;;;5038243;28;20025;-85
2023/06/27 12:41:36;;;;;;;4.82;1.05;;;;;;;;;;5053884;28;20036;-85
2023/06/27 12:44:02;;;;;;;3.38;0.93;;;;;;;;;;5045920;28;20072;-87
2023/06/27 12:46:28;;;;;;;6.03;1.08;;;;;;;;;;5054143;28;20734;-84
2023/06/27 12:48:54;;;;;;;7.55;1.40;;;;;;;;;;5039873;28;20026;-83
2023/06/27 12:51:21;;;;;;;5.13;1.10;;;;;;;;;;5045592;28;20120;-78
2023/06/27 12:53:48;;;;;;;5.97;0.90;;;;;;;;;;5040669;28;20483;-83
2023/06/27 12:56:14;;;;;;;6.70;1.13;;;;;;;;;;5058714;28;20036;-83
2023/06/27 12:58:46;;;;;;;2.67;0.77;;;;;;;;;;5051348;28;20475;-84
2023/06/27 13:01:12;;;;;;;4.32;1.00;;;;;;;;;;5051926;28;20032;-82
2023/06/27 13:03:38;;;;;;;4.65;0.90;;;;;;;;;;5052686;28;20499;-85
2023/06/27 13:06:04;;;;;;;5.07;1.02;;;;;;;;;;5046569;28;20033;-87
2023/06/27 13:08:30;;;;;;;5.80;1.17;;;;;;;;;;5053107;28;20373;-84
2023/06/27 13:10:56;;;;;;;5.93;1.83;;;;;;;;;;5034818;28;20399;-85
2023/06/27 13:13:22;;;;;;;4.38;1.27;;;;;;;;;;5054311;28;20506;-85
2023/06/27 13:15:49;;;;;;;4.53;1.02;;;;;;;;;;5056165;28;20017;-83
2023/06/27 13:18:15;;;;;;;3.88;1.08;;;;;;;;;;5041054;28;20029;-84
2023/06/27 13:20:42;;;;;;;8.00;1.48;;;;;;;;;;5054292;28;20474;-84
2023/06/27 13:23:08;;;;;;;3.47;0.88;;;;;;;;;;5051405;28;20032;-83
2023/06/27 13:25:34;;;;;;;4.38;1.08;;;;;;;;;;5050802;28;20036;-81
2023/06/27 13:28:01;;;;;;;4.05;1.17;;;;;;;;;;5054918;28;20017;-82
2023/06/27 13:30:28;;;;;;;5.88;1.55;;;;;;;;;;5064196;28;20399;-81
2023/06/27 13:32:54;;;;;;;5.10;1.27;;;;;;;;;;5058393;28;20352;-86
2023/06/27 13:35:22;;;;;;;5.97;1.20;;;;;;;;;;5070468;28;20083;-83
2023/06/27 13:37:48;;;;;;;2.92;0.70;;;;;;;;;;5080613;28;20116;-83
2023/06/27 13:40:15;;;;;;;3.35;0.77;;;;;;;;;;5039621;28;20110;-82
2023/06/27 13:42:41;;;;;;;3.20;0.90;;;;;;;;;;5063154;28;20475;-83
2023/06/27 13:45:07;;;;;;;6.10;1.35;;;;;;;;;;5059937;28;20553;-81
2023/06/27 13:47:34;;;;;;;4.45;1.05;;;;;;;;;;5068373;28;20035;-81
2023/06/27 13:50:00;;;;;;;3.67;0.70;;;;;;;;;;5052026;28;20079;-85
2023/06/27 13:52:29;;;;;;;3.80;1.05;;;;;;;;;;5054386;28;20079;-86
2023/06/27 13:54:56;;;;;;;3.92;0.80;;;;;;;;;;5056871;28;20411;-85
2023/06/27 13:57:23;;;;;;;5.38;1.45;;;;;;;;;;5067293;28;20017;-86
2023/06/27 13:59:49;;;;;;;6.95;1.17;;;;;;;;;;5056506;28;20028;-83
2023/06/27 14:02:15;;;;;;;3.40;0.90;;;;;;;;;;5066244;28;20521;-86
2023/06/27 14:04:42;;;;;;;3.00;0.93;;;;;;;;;;5060296;28;20028;-82
2023/06/27 14:07:08;;;;;;;6.35;1.27;;;;;;;;;;5070880;28;20025;-83
2023/06/27 14:09:34;;;;;;;5.97;1.33;;;;;;;;;;5054355;28;20021;-82
2023/06/27 14:12:00;;;;;;;4.82;1.00;;;;;;;;;;5038827;28;20041;-83
2023/06/27 14:14:27;;;;;;;4.53;1.27;;;;;;;;;;5063668;28;20086;-84
2023/06/27 14:16:54;;;;;;;3.63;0.80;;;;;;;;;;5050821;28;20078;-84
2023/06/27 14:19:41;;;;;;;3.28;0.98;;;;;;;;;;5032482;28;20475;-81
2023/06/27 14:22:08;;;;;;;4.90;1.23;;;;;;;;;;5031537;28;20033;-83
2023/06/27 14:24:34;;;;;;;5.25;1.38;;;;;;;;;;5053368;28;20025;-81
2023/06/27 14:27:00;;;;;;;4.90;0.80;;;;;;;;;;5057631;28;20021;-79
2023/06/27 14:29:28;;;;;;;4.80;1.10;;;;;;;;;;5049023;28;20079;-81
2023/06/27 14:31:54;;;;;;;4.88;1.60;;;;;;;;;;5046709;28;20471;-77
2023/06/27 14:34:27;;;;;;;2.88;1.00;;;;;;;;;;5048027;28;20037;-80
2023/06/27 14:36:55;;;;;;;5.07;1.20;;;;;;;;;;5048595;28;20478;-78
2023/06/27 14:39:27;;;;;;;6.80;1.08;;;;;;;;;;5047527;28;20056;-76